createdAt,value
2023-11-17T00:00:23.316Z,100538.94
2023-11-17T00:04:35.746Z,100537.00
2023-11-17T00:08:48.161Z,100558.31
2023-11-17T00:13:00.454Z,100562.75
2023-11-17T00:17:12.872Z,100564.53
2023-11-17T00:21:25.247Z,100552.13
2023-11-17T00:25:37.612Z,100532.53
2023-11-17T00:29:50.170Z,100544.97
2023-11-17T00:34:08.117Z,100551.16
2023-11-17T00:38:20.484Z,100571.41
2023-11-17T00:42:33.080Z,100569.72
2023-11-17T00:46:47.083Z,100573.75
2023-11-17T00:51:00.756Z,100580.44
2023-11-17T00:55:15.248Z,100594.69
2023-11-17T00:59:27.778Z,100596.34
2023-11-17T01:03:40.318Z,100573.59
2023-11-17T01:07:53.818Z,100557.66
2023-11-17T01:12:07.546Z,100546.53
2023-11-17T01:16:22.448Z,100526.16
2023-11-17T01:20:42.475Z,100537.22
2023-11-17T01:24:55.137Z,100527.41
2023-11-17T01:29:07.500Z,100516.22
2023-11-17T01:33:20.791Z,100511.78
2023-11-17T01:37:33.520Z,100481.16
2023-11-17T01:41:45.968Z,100467.09
2023-11-17T01:45:59.077Z,100472.34
2023-11-17T01:50:16.607Z,100459.97
2023-11-17T01:54:33.830Z,100453.59
2023-11-17T01:58:46.915Z,100448.22
2023-11-17T02:03:01.896Z,100438.53
2023-11-17T02:07:24.804Z,100436.72
2023-11-17T02:12:00.999Z,100425.25
2023-11-17T02:16:19.084Z,100399.63
2023-11-17T02:20:36.213Z,100383.59
2023-11-17T02:24:58.582Z,100380.16
2023-11-17T02:29:30.361Z,100370.16
2023-11-17T02:33:47.345Z,100364.72
2023-11-17T02:38:05.537Z,100353.09
2023-11-17T02:42:25.723Z,100342.41
2023-11-17T02:46:45.928Z,100335.31
2023-11-17T02:51:17.002Z,100315.59
2023-11-17T02:55:37.238Z,100321.78
2023-11-17T02:59:50.380Z,100319.00
2023-11-17T03:04:02.707Z,100320.69
2023-11-17T03:08:15.152Z,100323.09
2023-11-17T03:12:28.819Z,100330.06
2023-11-17T03:16:41.399Z,100329.91
2023-11-17T03:21:03.573Z,100337.72
2023-11-17T03:25:17.349Z,100331.41
2023-11-17T03:29:31.119Z,100329.44
2023-11-17T03:33:46.592Z,100330.25
2023-11-17T03:37:59.547Z,100322.34
2023-11-17T03:42:15.831Z,100323.03
2023-11-17T03:46:28.236Z,100320.38
2023-11-17T03:50:42.963Z,100301.72
2023-11-17T03:54:57.925Z,100292.06
2023-11-17T03:59:14.727Z,100272.50
2023-11-17T04:03:27.101Z,100281.41
2023-11-17T04:07:39.490Z,100269.00
2023-11-17T04:11:53.847Z,100263.00
2023-11-17T04:16:07.854Z,100250.81
2023-11-17T04:20:20.739Z,100257.06
2023-11-17T04:24:33.586Z,100250.69
2023-11-17T04:28:45.869Z,100248.06
2023-11-17T04:32:59.991Z,100249.00
2023-11-17T04:37:13.499Z,100260.44
2023-11-17T04:41:25.903Z,100250.75
2023-11-17T04:45:44.179Z,100239.09
2023-11-17T04:49:56.606Z,100221.03
2023-11-17T04:54:08.852Z,100217.38
2023-11-17T04:58:21.251Z,100210.19
2023-11-17T05:02:34.869Z,100213.59
2023-11-17T05:06:47.955Z,100207.75
2023-11-17T05:11:02.138Z,100216.66
2023-11-17T05:15:15.000Z,100223.66
2023-11-17T05:19:28.435Z,100223.00
2023-11-17T05:23:40.671Z,100237.69
2023-11-17T05:27:53.272Z,100236.19
2023-11-17T05:32:06.125Z,100239.91
2023-11-17T05:36:18.693Z,100240.44
2023-11-17T05:40:35.224Z,100219.56
2023-11-17T05:44:47.678Z,100210.81
2023-11-17T05:48:59.988Z,100215.78
2023-11-17T05:53:12.426Z,100203.72
2023-11-17T05:57:24.735Z,100210.53
2023-11-17T06:01:37.005Z,100218.81
2023-11-17T06:05:49.405Z,100227.34
2023-11-17T06:10:01.837Z,100219.25
2023-11-17T06:14:14.262Z,100215.78
2023-11-17T06:18:27.121Z,100222.19
2023-11-17T06:22:39.495Z,100215.44
2023-11-17T06:26:51.812Z,100217.72
2023-11-17T06:31:04.406Z,100229.22
2023-11-17T06:35:17.740Z,100219.44
2023-11-17T06:39:30.860Z,100231.91
2023-11-17T06:43:43.438Z,100233.91
2023-11-17T06:47:55.858Z,100221.72
2023-11-17T06:52:09.766Z,100223.16
2023-11-17T06:56:22.346Z,100214.66
2023-11-17T07:00:34.626Z,100218.13
2023-11-17T07:04:48.635Z,100209.63
2023-11-17T07:09:03.254Z,100203.28
2023-11-17T07:13:16.836Z,100193.31
2023-11-17T07:17:29.262Z,100198.41
2023-11-17T07:21:42.168Z,100198.38
2023-11-17T07:25:56.628Z,100194.56
2023-11-17T07:30:14.150Z,100186.25
2023-11-17T07:34:26.620Z,100186.28
2023-11-17T07:38:39.485Z,100181.56
2023-11-17T07:42:51.806Z,100189.97
2023-11-17T07:47:05.896Z,100192.47
2023-11-17T07:51:18.607Z,100178.97
2023-11-17T07:55:33.413Z,100158.31
2023-11-17T07:59:46.348Z,100156.72
2023-11-17T08:04:00.329Z,100156.88
2023-11-17T08:08:15.317Z,100141.63
2023-11-17T08:12:28.256Z,100137.03
2023-11-17T08:16:40.671Z,100154.81
2023-11-17T08:20:53.661Z,100161.81
2023-11-17T08:25:08.128Z,100167.38
2023-11-17T08:29:23.019Z,100179.50
2023-11-17T08:33:36.453Z,100171.22
2023-11-17T08:37:48.930Z,100145.22
2023-11-17T08:42:02.400Z,100141.94
2023-11-17T08:46:15.268Z,100139.44
2023-11-17T08:50:27.637Z,100129.19
2023-11-17T08:54:39.962Z,100120.41
2023-11-17T08:58:52.363Z,100130.03
2023-11-17T09:03:06.521Z,100118.34
2023-11-17T09:07:19.044Z,100128.78
2023-11-17T09:11:34.487Z,100117.31
2023-11-17T09:15:47.157Z,100116.88
2023-11-17T09:20:01.611Z,100109.28
2023-11-17T09:24:14.099Z,100118.34
2023-11-17T09:28:26.457Z,100141.00
2023-11-17T09:32:38.804Z,100137.38
2023-11-17T09:36:53.298Z,100121.63
2023-11-17T09:41:06.248Z,100125.31
2023-11-17T09:45:23.591Z,100120.06
2023-11-17T09:49:40.039Z,100110.09
2023-11-17T09:53:55.793Z,100100.69
2023-11-17T09:58:09.142Z,100090.19
2023-11-17T10:02:22.669Z,100089.59
2023-11-17T10:06:35.807Z,100088.94
2023-11-17T10:10:49.532Z,100079.63
2023-11-17T10:15:07.731Z,100078.50
2023-11-17T10:19:20.963Z,100069.50
2023-11-17T10:23:34.443Z,100069.09
2023-11-17T10:27:51.233Z,100065.72
2023-11-17T10:32:23.039Z,100037.66
2023-11-17T10:37:00.706Z,100037.84
2023-11-17T10:41:23.140Z,100038.44
2023-11-17T10:45:38.087Z,100022.88
2023-11-17T10:50:09.178Z,100017.44
2023-11-17T10:54:21.653Z,100017.28
2023-11-17T10:58:34.341Z,100012.44
2023-11-17T11:02:48.959Z,99999.78
2023-11-17T11:07:03.177Z,100017.09
2023-11-17T11:11:22.324Z,100014.00
2023-11-17T11:15:35.621Z,99991.94
2023-11-17T11:19:58.489Z,99979.97
2023-11-17T11:24:33.415Z,99979.25
2023-11-17T11:28:49.916Z,99970.22
2023-11-17T11:33:02.624Z,99959.81
2023-11-17T11:37:15.002Z,99965.25
2023-11-17T11:41:28.478Z,99957.19
2023-11-17T11:45:42.706Z,99951.94
2023-11-17T11:49:58.688Z,99940.25
2023-11-17T11:54:11.778Z,99946.00
2023-11-17T11:58:24.424Z,99934.59
2023-11-17T12:02:36.729Z,99925.44
2023-11-17T12:06:51.968Z,99930.00
2023-11-17T12:11:14.828Z,99917.66
2023-11-17T12:15:30.240Z,99916.53
2023-11-17T12:19:42.685Z,99917.94
2023-11-17T12:24:07.957Z,99915.16
2023-11-17T12:28:21.249Z,99917.69
2023-11-17T12:32:34.945Z,99897.72
2023-11-17T12:36:47.834Z,99882.91
2023-11-17T12:41:03.926Z,99891.00
2023-11-17T12:45:17.631Z,99880.03
2023-11-17T12:49:30.104Z,99872.72
2023-11-17T12:53:51.296Z,99880.16
2023-11-17T12:58:04.600Z,99870.91
2023-11-17T13:02:18.157Z,99863.94
2023-11-17T13:06:32.543Z,99867.22
2023-11-17T13:10:47.747Z,99866.28
2023-11-17T13:15:00.211Z,99862.38
2023-11-17T13:19:15.772Z,99858.63
2023-11-17T13:23:29.104Z,99851.34
2023-11-17T13:27:44.580Z,99857.59
2023-11-17T13:32:02.346Z,99855.44
2023-11-17T13:36:15.180Z,99856.56
2023-11-17T13:40:35.658Z,99840.72
2023-11-17T13:44:48.531Z,99851.88
2023-11-17T13:49:14.118Z,99841.50
2023-11-17T13:53:29.302Z,99835.31
2023-11-17T13:57:42.397Z,99830.31
2023-11-17T14:01:59.256Z,99815.28
2023-11-17T14:06:12.066Z,99820.66
2023-11-17T14:10:24.665Z,99818.56
2023-11-17T14:14:38.459Z,99807.53
2023-11-17T14:18:52.149Z,99812.34
2023-11-17T14:23:09.364Z,99796.00
2023-11-17T14:27:21.795Z,99807.16
2023-11-17T14:31:36.533Z,99786.38
2023-11-17T14:35:49.147Z,99784.56
2023-11-17T14:40:01.732Z,99778.38
2023-11-17T14:44:14.242Z,99770.34
2023-11-17T14:48:26.938Z,99772.44
2023-11-17T14:52:39.445Z,99770.75
2023-11-17T14:56:52.107Z,99757.19
2023-11-17T15:01:06.902Z,99758.75
2023-11-17T15:05:22.622Z,99759.69
2023-11-17T15:09:35.318Z,99754.94
2023-11-17T15:13:48.245Z,99740.75
2023-11-17T15:18:09.952Z,99732.78
2023-11-17T15:22:22.389Z,99718.34
2023-11-17T15:26:35.897Z,99698.09
2023-11-17T15:30:55.729Z,99690.88
2023-11-17T15:35:12.884Z,99668.47
2023-11-17T15:39:28.877Z,99645.31
2023-11-17T15:43:44.793Z,99665.25
2023-11-17T15:47:58.340Z,99670.63
2023-11-17T15:52:12.548Z,99660.72
2023-11-17T15:56:25.694Z,99680.19
2023-11-17T16:00:39.852Z,99673.59
2023-11-17T16:04:52.316Z,99687.81
2023-11-17T16:09:11.916Z,99692.56
2023-11-17T16:13:25.048Z,99656.28
2023-11-17T16:17:37.967Z,99668.44
2023-11-17T16:21:50.398Z,99694.97
2023-11-17T16:26:02.943Z,99720.06
2023-11-17T16:30:18.813Z,99705.13
2023-11-17T16:34:31.198Z,99686.16
2023-11-17T16:38:44.538Z,99729.34
2023-11-17T16:42:59.878Z,99707.69
2023-11-17T16:47:13.277Z,99694.75
2023-11-17T16:51:25.800Z,99686.19
2023-11-17T16:55:41.650Z,99687.53
2023-11-17T16:59:54.155Z,99674.94
2023-11-17T17:04:07.515Z,99668.53
2023-11-17T17:08:27.528Z,99678.97
2023-11-17T17:12:40.955Z,99672.91
2023-11-17T17:16:54.502Z,99661.16
2023-11-17T17:21:08.199Z,99656.03
2023-11-17T17:25:21.298Z,99644.25
2023-11-17T17:29:33.673Z,99653.28
2023-11-17T17:33:46.132Z,99656.88
2023-11-17T17:38:00.423Z,99659.22
2023-11-17T17:42:17.371Z,99654.81
2023-11-17T17:46:29.833Z,99667.41
2023-11-17T17:50:42.661Z,99653.41
2023-11-17T17:54:55.163Z,99642.56
2023-11-17T17:59:07.601Z,99649.75
2023-11-17T18:03:21.257Z,99645.44
2023-11-17T18:07:34.412Z,99659.88
2023-11-17T18:11:50.188Z,99667.13
2023-11-17T18:16:03.135Z,99620.56
2023-11-17T18:20:20.182Z,99614.44
2023-11-17T18:24:33.430Z,99617.25
2023-11-17T18:28:49.057Z,99608.31
2023-11-17T18:33:01.659Z,99613.34
2023-11-17T18:37:14.354Z,99614.44
2023-11-17T18:41:27.172Z,99608.91
2023-11-17T18:45:39.648Z,99594.03
2023-11-17T18:49:52.567Z,99598.00
2023-11-17T18:54:07.567Z,99587.63
2023-11-17T18:58:21.266Z,99592.25
2023-11-17T19:02:33.770Z,99652.06
2023-11-17T19:06:49.375Z,99656.28
2023-11-17T19:11:02.001Z,99666.34
2023-11-17T19:15:15.897Z,99677.88
2023-11-17T19:19:28.362Z,99721.66
2023-11-17T19:23:40.895Z,99730.03
2023-11-17T19:27:53.326Z,99744.81
2023-11-17T19:32:08.998Z,99751.72
2023-11-17T19:36:22.828Z,99751.34
2023-11-17T19:40:36.956Z,99741.72
2023-11-17T19:44:51.455Z,99765.09
2023-11-17T19:49:07.565Z,99775.53
2023-11-17T19:53:20.275Z,99787.31
2023-11-17T19:57:34.091Z,99805.38
2023-11-17T20:01:46.633Z,99803.22
2023-11-17T20:05:59.415Z,99797.19
2023-11-17T20:10:15.614Z,99825.34
2023-11-17T20:14:27.973Z,99886.81
2023-11-17T20:18:40.538Z,99907.00
2023-11-17T20:22:55.465Z,99910.38
2023-11-17T20:27:08.807Z,99908.84
2023-11-17T20:31:24.129Z,99928.56
2023-11-17T20:35:39.372Z,99949.81
2023-11-17T20:39:52.430Z,99928.75
2023-11-17T20:44:07.788Z,99941.19
2023-11-17T20:48:20.843Z,99935.09
2023-11-17T20:52:33.364Z,99944.88
2023-11-17T20:56:47.056Z,99981.94
2023-11-17T21:00:59.544Z,99995.25
2023-11-17T21:05:13.297Z,99943.19
2023-11-17T21:09:30.692Z,99896.28
2023-11-17T21:13:45.061Z,99898.06
2023-11-17T21:17:57.627Z,99893.63
2023-11-17T21:22:10.720Z,99867.13
2023-11-17T21:26:26.306Z,99810.50
2023-11-17T21:30:39.603Z,99814.97
2023-11-17T21:34:59.525Z,99788.31
2023-11-17T21:39:12.433Z,99792.78
2023-11-17T21:43:25.814Z,99790.13
2023-11-17T21:47:38.225Z,99782.22
2023-11-17T21:51:50.552Z,99772.47
2023-11-17T21:56:02.893Z,99759.66
2023-11-17T22:00:18.718Z,99733.41
2023-11-17T22:04:31.418Z,99721.03
2023-11-17T22:08:43.854Z,99710.63
2023-11-17T22:12:57.400Z,99724.00
2023-11-17T22:17:09.916Z,99727.59
2023-11-17T22:21:22.652Z,99732.84
2023-11-17T22:25:35.034Z,99744.06
2023-11-17T22:29:47.687Z,99759.94
2023-11-17T22:34:00.139Z,99752.28
2023-11-17T22:38:14.109Z,99740.63
2023-11-17T22:42:27.560Z,99734.47
2023-11-17T22:46:40.050Z,99746.94
2023-11-17T22:50:52.543Z,99753.88
2023-11-17T22:55:05.379Z,99746.56
2023-11-17T22:59:19.466Z,99756.28
2023-11-17T23:03:32.663Z,99748.44
2023-11-17T23:07:45.439Z,99759.94
2023-11-17T23:11:59.028Z,99786.66
2023-11-17T23:16:11.516Z,99712.22
2023-11-17T23:20:24.330Z,99708.94
2023-11-17T23:24:37.987Z,99778.00
2023-11-17T23:28:51.680Z,99769.09
2023-11-17T23:33:09.399Z,99773.66
2023-11-17T23:37:22.262Z,99771.94
2023-11-17T23:41:34.951Z,99780.81
2023-11-17T23:45:47.471Z,99783.66
2023-11-17T23:49:59.992Z,99796.59
2023-11-17T23:54:15.043Z,99807.19
2023-11-17T23:58:27.393Z,99789.31
